sensor_id;sensor_type;location;lat;lon;timestamp;temperature;humidity
52058;DHT22;38063;53.210;6.504;2022-12-29T00:00:06;9.70;99.90
52058;DHT22;38063;53.210;6.504;2022-12-29T00:02:32;9.70;99.90
52058;DHT22;38063;53.210;6.504;2022-12-29T00:04:58;9.70;99.90
52058;DHT22;38063;53.210;6.504;2022-12-29T00:07:23;9.70;99.90
52058;DHT22;38063;53.210;6.504;2022-12-29T00:09:49;9.70;99.90
52058;DHT22;38063;53.210;6.504;2022-12-29T00:12:14;9.60;99.90
52058;DHT22;38063;53.210;6.504;2022-12-29T00:14:40;9.60;99.90
52058;DHT22;38063;53.210;6.504;2022-12-29T00:17:25;9.60;99.90
52058;DHT22;38063;53.210;6.504;2022-12-29T00:19:50;9.60;99.90
52058;DHT22;38063;53.210;6.504;2022-12-29T00:22:34;9.70;99.90
52058;DHT22;38063;53.210;6.504;2022-12-29T00:25:20;9.70;99.90
52058;DHT22;38063;53.210;6.504;2022-12-29T00:28:08;9.70;99.90
52058;DHT22;38063;53.210;6.504;2022-12-29T00:30:52;9.70;99.90
52058;DHT22;38063;53.210;6.504;2022-12-29T00:33:37;9.70;99.90
52058;DHT22;38063;53.210;6.504;2022-12-29T00:36:39;9.80;99.90
52058;DHT22;38063;53.210;6.504;2022-12-29T00:39:17;9.80;99.90
52058;DHT22;38063;53.210;6.504;2022-12-29T00:42:05;9.90;99.90
52058;DHT22;38063;53.210;6.504;2022-12-29T00:45:04;9.90;99.90
52058;DHT22;38063;53.210;6.504;2022-12-29T00:47:30;9.90;99.90
52058;DHT22;38063;53.210;6.504;2022-12-29T00:49:56;9.90;99.90
52058;DHT22;38063;53.210;6.504;2022-12-29T00:52:21;9.90;99.90
52058;DHT22;38063;53.210;6.504;2022-12-29T00:54:47;10.00;99.90
52058;DHT22;38063;53.210;6.504;2022-12-29T00:57:13;10.00;99.90
52058;DHT22;38063;53.210;6.504;2022-12-29T00:59:40;10.00;99.90
52058;DHT22;38063;53.210;6.504;2022-12-29T01:02:06;10.00;99.90
52058;DHT22;38063;53.210;6.504;2022-12-29T01:04:32;10.00;99.90
52058;DHT22;38063;53.210;6.504;2022-12-29T01:06:57;10.00;99.90
52058;DHT22;38063;53.210;6.504;2022-12-29T01:09:23;10.00;99.90
52058;DHT22;38063;53.210;6.504;2022-12-29T01:12:08;10.30;99.90
52058;DHT22;38063;53.210;6.504;2022-12-29T01:14:34;10.20;99.90
52058;DHT22;38063;53.210;6.504;2022-12-29T01:17:00;10.30;99.90
52058;DHT22;38063;53.210;6.504;2022-12-29T01:19:26;10.10;99.90
52058;DHT22;38063;53.210;6.504;2022-12-29T01:21:52;10.20;99.90
52058;DHT22;38063;53.210;6.504;2022-12-29T01:24:19;10.00;99.90
52058;DHT22;38063;53.210;6.504;2022-12-29T01:26:49;10.00;99.90
52058;DHT22;38063;53.210;6.504;2022-12-29T01:29:15;10.10;99.90
52058;DHT22;38063;53.210;6.504;2022-12-29T01:31:40;10.00;99.90
52058;DHT22;38063;53.210;6.504;2022-12-29T01:34:06;10.00;99.90
52058;DHT22;38063;53.210;6.504;2022-12-29T01:36:32;10.20;99.90
52058;DHT22;38063;53.210;6.504;2022-12-29T01:38:58;10.00;99.90
52058;DHT22;38063;53.210;6.504;2022-12-29T01:41:24;9.90;99.90
52058;DHT22;38063;53.210;6.504;2022-12-29T01:43:52;10.10;99.90
52058;DHT22;38063;53.210;6.504;2022-12-29T01:46:41;10.00;99.90
52058;DHT22;38063;53.210;6.504;2022-12-29T01:51:43;10.00;99.90
52058;DHT22;38063;53.210;6.504;2022-12-29T01:54:21;10.00;99.90
52058;DHT22;38063;53.210;6.504;2022-12-29T01:56:48;10.00;99.90
52058;DHT22;38063;53.210;6.504;2022-12-29T01:59:22;10.50;99.90
52058;DHT22;38063;53.210;6.504;2022-12-29T02:01:48;9.90;99.90
52058;DHT22;38063;53.210;6.504;2022-12-29T02:04:15;9.80;99.90
52058;DHT22;38063;53.210;6.504;2022-12-29T02:07:08;9.80;99.90
52058;DHT22;38063;53.210;6.504;2022-12-29T02:09:32;9.90;99.90
52058;DHT22;38063;53.210;6.504;2022-12-29T02:11:58;9.80;99.90
52058;DHT22;38063;53.210;6.504;2022-12-29T02:14:24;9.70;99.90
52058;DHT22;38063;53.210;6.504;2022-12-29T02:17:55;9.70;99.90
52058;DHT22;38063;53.210;6.504;2022-12-29T02:20:24;9.70;99.90
52058;DHT22;38063;53.210;6.504;2022-12-29T02:38:47;9.80;99.90
52058;DHT22;38063;53.210;6.504;2022-12-29T02:49:30;9.90;99.90
52058;DHT22;38063;53.210;6.504;2022-12-29T02:52:02;9.90;99.90
52058;DHT22;38063;53.210;6.504;2022-12-29T02:54:29;9.90;99.90
52058;DHT22;38063;53.210;6.504;2022-12-29T02:57:26;10.10;99.90
52058;DHT22;38063;53.210;6.504;2022-12-29T03:05:30;9.90;99.90
52058;DHT22;38063;53.210;6.504;2022-12-29T03:10:48;10.00;99.90
52058;DHT22;38063;53.210;6.504;2022-12-29T03:13:23;10.00;99.90
52058;DHT22;38063;53.210;6.504;2022-12-29T03:16:16;10.00;99.90
52058;DHT22;38063;53.210;6.504;2022-12-29T03:19:07;9.90;99.90
52058;DHT22;38063;53.210;6.504;2022-12-29T03:21:39;10.50;99.90
52058;DHT22;38063;53.210;6.504;2022-12-29T03:24:30;9.90;99.90
52058;DHT22;38063;53.210;6.504;2022-12-29T03:26:59;9.90;99.90
52058;DHT22;38063;53.210;6.504;2022-12-29T03:29:28;9.90;99.90
52058;DHT22;38063;53.210;6.504;2022-12-29T03:31:55;9.90;99.90
52058;DHT22;38063;53.210;6.504;2022-12-29T03:34:22;9.90;99.90
52058;DHT22;38063;53.210;6.504;2022-12-29T03:37:14;10.00;99.90
52058;DHT22;38063;53.210;6.504;2022-12-29T03:39:44;10.00;99.90
52058;DHT22;38063;53.210;6.504;2022-12-29T03:42:19;9.90;99.90
52058;DHT22;38063;53.210;6.504;2022-12-29T03:44:47;9.90;99.90
52058;DHT22;38063;53.210;6.504;2022-12-29T03:47:14;9.80;99.90
52058;DHT22;38063;53.210;6.504;2022-12-29T03:49:41;9.80;99.90
52058;DHT22;38063;53.210;6.504;2022-12-29T03:52:07;9.80;99.90
52058;DHT22;38063;53.210;6.504;2022-12-29T03:54:32;9.60;99.90
52058;DHT22;38063;53.210;6.504;2022-12-29T03:56:58;9.70;99.90
52058;DHT22;38063;53.210;6.504;2022-12-29T03:59:24;9.70;99.90
52058;DHT22;38063;53.210;6.504;2022-12-29T04:01:50;9.70;99.90
52058;DHT22;38063;53.210;6.504;2022-12-29T04:04:15;9.60;99.90
52058;DHT22;38063;53.210;6.504;2022-12-29T04:06:41;9.60;99.90
52058;DHT22;38063;53.210;6.504;2022-12-29T04:09:09;9.60;99.90
52058;DHT22;38063;53.210;6.504;2022-12-29T04:11:34;9.70;99.90
52058;DHT22;38063;53.210;6.504;2022-12-29T04:14:00;9.60;99.90
52058;DHT22;38063;53.210;6.504;2022-12-29T04:16:26;10.20;99.90
52058;DHT22;38063;53.210;6.504;2022-12-29T04:18:51;9.60;99.90
52058;DHT22;38063;53.210;6.504;2022-12-29T04:21:17;9.60;99.90
52058;DHT22;38063;53.210;6.504;2022-12-29T04:23:42;9.70;99.90
52058;DHT22;38063;53.210;6.504;2022-12-29T04:26:09;9.70;99.90
52058;DHT22;38063;53.210;6.504;2022-12-29T04:28:36;9.70;99.90
52058;DHT22;38063;53.210;6.504;2022-12-29T04:31:03;9.70;99.90
52058;DHT22;38063;53.210;6.504;2022-12-29T04:33:28;9.70;99.90
52058;DHT22;38063;53.210;6.504;2022-12-29T04:35:54;9.80;99.90
52058;DHT22;38063;53.210;6.504;2022-12-29T04:38:21;9.90;99.90
52058;DHT22;38063;53.210;6.504;2022-12-29T04:40:48;10.30;99.90
52058;DHT22;38063;53.210;6.504;2022-12-29T04:43:14;9.70;99.90
52058;DHT22;38063;53.210;6.504;2022-12-29T04:45:46;9.80;99.90
52058;DHT22;38063;53.210;6.504;2022-12-29T04:48:12;10.00;99.90
52058;DHT22;38063;53.210;6.504;2022-12-29T04:50:39;9.70;99.90
52058;DHT22;38063;53.210;6.504;2022-12-29T04:53:05;9.60;99.90
52058;DHT22;38063;53.210;6.504;2022-12-29T04:55:31;9.60;99.90
52058;DHT22;38063;53.210;6.504;2022-12-29T04:57:56;9.60;99.90
52058;DHT22;38063;53.210;6.504;2022-12-29T05:00:22;9.50;99.90
52058;DHT22;38063;53.210;6.504;2022-12-29T05:02:48;9.50;99.90
52058;DHT22;38063;53.210;6.504;2022-12-29T05:05:14;9.50;99.90
52058;DHT22;38063;53.210;6.504;2022-12-29T05:07:40;9.40;99.90
52058;DHT22;38063;53.210;6.504;2022-12-29T05:10:06;9.40;99.90
52058;DHT22;38063;53.210;6.504;2022-12-29T05:12:34;9.30;99.90
52058;DHT22;38063;53.210;6.504;2022-12-29T05:15:00;9.30;99.90
52058;DHT22;38063;53.210;6.504;2022-12-29T05:17:28;9.30;99.90
52058;DHT22;38063;53.210;6.504;2022-12-29T05:19:54;9.30;99.90
52058;DHT22;38063;53.210;6.504;2022-12-29T05:22:20;9.20;99.90
52058;DHT22;38063;53.210;6.504;2022-12-29T05:24:45;10.30;99.90
52058;DHT22;38063;53.210;6.504;2022-12-29T05:27:11;10.00;99.90
52058;DHT22;38063;53.210;6.504;2022-12-29T05:29:37;9.20;99.90
52058;DHT22;38063;53.210;6.504;2022-12-29T05:32:02;9.20;99.90
52058;DHT22;38063;53.210;6.504;2022-12-29T05:34:28;9.10;99.90
52058;DHT22;38063;53.210;6.504;2022-12-29T05:36:54;9.10;99.90
52058;DHT22;38063;53.210;6.504;2022-12-29T05:39:19;9.10;99.90
52058;DHT22;38063;53.210;6.504;2022-12-29T05:41:45;9.10;99.90
52058;DHT22;38063;53.210;6.504;2022-12-29T05:44:11;9.10;99.90
52058;DHT22;38063;53.210;6.504;2022-12-29T05:46:37;9.00;99.90
52058;DHT22;38063;53.210;6.504;2022-12-29T05:49:03;9.00;99.90
52058;DHT22;38063;53.210;6.504;2022-12-29T05:51:28;9.00;99.90
52058;DHT22;38063;53.210;6.504;2022-12-29T05:53:54;9.50;99.90
52058;DHT22;38063;53.210;6.504;2022-12-29T05:56:20;9.00;99.90
52058;DHT22;38063;53.210;6.504;2022-12-29T05:58:45;9.00;99.90
52058;DHT22;38063;53.210;6.504;2022-12-29T06:01:11;9.00;99.90
52058;DHT22;38063;53.210;6.504;2022-12-29T06:03:37;9.00;99.90
52058;DHT22;38063;53.210;6.504;2022-12-29T06:06:02;9.00;99.90
52058;DHT22;38063;53.210;6.504;2022-12-29T06:08:28;9.10;99.90
52058;DHT22;38063;53.210;6.504;2022-12-29T06:10:54;9.10;99.90
52058;DHT22;38063;53.210;6.504;2022-12-29T06:13:19;9.10;99.90
52058;DHT22;38063;53.210;6.504;2022-12-29T06:15:47;9.20;99.90
52058;DHT22;38063;53.210;6.504;2022-12-29T06:18:13;9.10;99.90
52058;DHT22;38063;53.210;6.504;2022-12-29T06:20:38;9.20;99.90
52058;DHT22;38063;53.210;6.504;2022-12-29T06:23:04;9.10;99.90
52058;DHT22;38063;53.210;6.504;2022-12-29T06:25:30;9.10;99.90
52058;DHT22;38063;53.210;6.504;2022-12-29T06:27:57;9.10;99.90
52058;DHT22;38063;53.210;6.504;2022-12-29T06:30:23;9.10;99.90
52058;DHT22;38063;53.210;6.504;2022-12-29T06:32:49;9.10;99.90
52058;DHT22;38063;53.210;6.504;2022-12-29T06:35:15;9.10;99.90
52058;DHT22;38063;53.210;6.504;2022-12-29T06:37:40;9.10;99.90
52058;DHT22;38063;53.210;6.504;2022-12-29T06:40:07;9.10;99.90
52058;DHT22;38063;53.210;6.504;2022-12-29T06:42:32;9.00;99.90
52058;DHT22;38063;53.210;6.504;2022-12-29T06:44:58;9.20;99.90
52058;DHT22;38063;53.210;6.504;2022-12-29T06:47:26;9.00;99.90
52058;DHT22;38063;53.210;6.504;2022-12-29T06:49:51;9.00;99.90
52058;DHT22;38063;53.210;6.504;2022-12-29T06:52:17;9.00;99.90
52058;DHT22;38063;53.210;6.504;2022-12-29T06:54:43;8.90;99.90
52058;DHT22;38063;53.210;6.504;2022-12-29T06:57:08;9.00;99.90
52058;DHT22;38063;53.210;6.504;2022-12-29T06:59:35;8.90;99.90
52058;DHT22;38063;53.210;6.504;2022-12-29T07:02:01;8.90;99.90
52058;DHT22;38063;53.210;6.504;2022-12-29T07:04:28;8.90;99.90
52058;DHT22;38063;53.210;6.504;2022-12-29T07:06:54;8.90;99.90
52058;DHT22;38063;53.210;6.504;2022-12-29T07:09:19;9.00;99.90
52058;DHT22;38063;53.210;6.504;2022-12-29T07:11:45;8.80;99.90
52058;DHT22;38063;53.210;6.504;2022-12-29T07:14:11;8.80;99.90
52058;DHT22;38063;53.210;6.504;2022-12-29T07:16:37;8.80;99.90
52058;DHT22;38063;53.210;6.504;2022-12-29T07:19:03;8.90;99.90
52058;DHT22;38063;53.210;6.504;2022-12-29T07:21:29;8.90;99.90
52058;DHT22;38063;53.210;6.504;2022-12-29T07:23:55;8.90;99.90
52058;DHT22;38063;53.210;6.504;2022-12-29T07:26:20;8.90;99.90
52058;DHT22;38063;53.210;6.504;2022-12-29T07:28:46;8.90;99.90
52058;DHT22;38063;53.210;6.504;2022-12-29T07:31:16;9.10;99.90
52058;DHT22;38063;53.210;6.504;2022-12-29T07:33:42;9.00;99.90
52058;DHT22;38063;53.210;6.504;2022-12-29T07:36:09;9.00;99.90
52058;DHT22;38063;53.210;6.504;2022-12-29T07:38:35;9.00;99.90
52058;DHT22;38063;53.210;6.504;2022-12-29T07:41:00;9.30;99.90
52058;DHT22;38063;53.210;6.504;2022-12-29T07:43:26;9.10;99.90
52058;DHT22;38063;53.210;6.504;2022-12-29T07:45:52;9.10;99.90
52058;DHT22;38063;53.210;6.504;2022-12-29T07:48:21;9.40;99.90
52058;DHT22;38063;53.210;6.504;2022-12-29T07:50:47;9.50;99.90
52058;DHT22;38063;53.210;6.504;2022-12-29T07:53:13;9.10;99.90
52058;DHT22;38063;53.210;6.504;2022-12-29T07:55:39;9.20;99.90
52058;DHT22;38063;53.210;6.504;2022-12-29T07:58:05;9.20;99.90
52058;DHT22;38063;53.210;6.504;2022-12-29T08:00:31;9.20;99.90
52058;DHT22;38063;53.210;6.504;2022-12-29T08:02:56;9.20;99.90
52058;DHT22;38063;53.210;6.504;2022-12-29T08:05:22;9.10;99.90
52058;DHT22;38063;53.210;6.504;2022-12-29T08:07:48;9.10;99.90
52058;DHT22;38063;53.210;6.504;2022-12-29T08:10:14;9.10;99.90
52058;DHT22;38063;53.210;6.504;2022-12-29T08:12:41;9.10;99.90
52058;DHT22;38063;53.210;6.504;2022-12-29T08:15:08;9.10;99.90
52058;DHT22;38063;53.210;6.504;2022-12-29T08:17:34;9.10;99.90
52058;DHT22;38063;53.210;6.504;2022-12-29T08:20:00;9.20;99.90
52058;DHT22;38063;53.210;6.504;2022-12-29T08:22:26;9.40;99.90
52058;DHT22;38063;53.210;6.504;2022-12-29T08:24:52;9.10;99.90
52058;DHT22;38063;53.210;6.504;2022-12-29T08:27:18;9.10;99.90
52058;DHT22;38063;53.210;6.504;2022-12-29T08:29:43;9.10;99.90
52058;DHT22;38063;53.210;6.504;2022-12-29T08:32:10;9.10;99.90
52058;DHT22;38063;53.210;6.504;2022-12-29T08:34:36;9.10;99.90
52058;DHT22;38063;53.210;6.504;2022-12-29T08:37:01;9.50;99.90
52058;DHT22;38063;53.210;6.504;2022-12-29T08:39:28;9.10;99.90
52058;DHT22;38063;53.210;6.504;2022-12-29T08:41:54;9.10;99.90
52058;DHT22;38063;53.210;6.504;2022-12-29T08:44:20;9.10;99.90
52058;DHT22;38063;53.210;6.504;2022-12-29T08:46:45;9.00;99.90
52058;DHT22;38063;53.210;6.504;2022-12-29T08:49:11;8.90;99.90
52058;DHT22;38063;53.210;6.504;2022-12-29T08:51:37;8.90;99.90
52058;DHT22;38063;53.210;6.504;2022-12-29T08:54:02;8.90;99.90
52058;DHT22;38063;53.210;6.504;2022-12-29T08:56:28;8.90;99.90
52058;DHT22;38063;53.210;6.504;2022-12-29T08:58:54;9.00;99.90
52058;DHT22;38063;53.210;6.504;2022-12-29T09:01:20;8.90;99.90
52058;DHT22;38063;53.210;6.504;2022-12-29T09:03:46;8.90;99.90
52058;DHT22;38063;53.210;6.504;2022-12-29T09:06:13;8.90;99.90
52058;DHT22;38063;53.210;6.504;2022-12-29T09:08:39;8.90;99.90
52058;DHT22;38063;53.210;6.504;2022-12-29T09:11:10;8.90;99.90
52058;DHT22;38063;53.210;6.504;2022-12-29T09:13:36;8.80;99.90
52058;DHT22;38063;53.210;6.504;2022-12-29T09:16:02;8.80;99.90
52058;DHT22;38063;53.210;6.504;2022-12-29T09:18:28;8.80;99.90
52058;DHT22;38063;53.210;6.504;2022-12-29T09:21:02;8.80;99.90
52058;DHT22;38063;53.210;6.504;2022-12-29T09:23:28;8.80;99.90
52058;DHT22;38063;53.210;6.504;2022-12-29T09:25:54;8.80;99.90
52058;DHT22;38063;53.210;6.504;2022-12-29T09:28:21;8.80;99.90
52058;DHT22;38063;53.210;6.504;2022-12-29T09:30:47;8.80;99.90
52058;DHT22;38063;53.210;6.504;2022-12-29T09:33:13;8.80;99.90
52058;DHT22;38063;53.210;6.504;2022-12-29T09:35:43;8.80;99.90
52058;DHT22;38063;53.210;6.504;2022-12-29T09:38:08;8.80;99.90
52058;DHT22;38063;53.210;6.504;2022-12-29T09:40:34;9.50;99.90
52058;DHT22;38063;53.210;6.504;2022-12-29T09:43:17;8.80;99.90
52058;DHT22;38063;53.210;6.504;2022-12-29T09:46:14;8.90;99.90
52058;DHT22;38063;53.210;6.504;2022-12-29T09:48:47;8.80;99.90
52058;DHT22;38063;53.210;6.504;2022-12-29T09:51:17;8.80;99.90
52058;DHT22;38063;53.210;6.504;2022-12-29T09:53:53;8.90;99.90
52058;DHT22;38063;53.210;6.504;2022-12-29T09:56:23;8.80;99.90
52058;DHT22;38063;53.210;6.504;2022-12-29T09:58:51;8.80;99.90
52058;DHT22;38063;53.210;6.504;2022-12-29T10:01:23;8.80;99.90
52058;DHT22;38063;53.210;6.504;2022-12-29T10:03:55;8.80;99.90
52058;DHT22;38063;53.210;6.504;2022-12-29T10:11:54;8.70;99.90
52058;DHT22;38063;53.210;6.504;2022-12-29T10:25:26;8.50;99.90
52058;DHT22;38063;53.210;6.504;2022-12-29T10:27:56;8.40;99.90
52058;DHT22;38063;53.210;6.504;2022-12-29T10:30:23;8.40;99.90
52058;DHT22;38063;53.210;6.504;2022-12-29T10:32:50;8.40;99.90
52058;DHT22;38063;53.210;6.504;2022-12-29T10:35:20;8.40;99.90
52058;DHT22;38063;53.210;6.504;2022-12-29T10:38:02;8.40;99.90
52058;DHT22;38063;53.210;6.504;2022-12-29T10:41:07;8.40;99.90
52058;DHT22;38063;53.210;6.504;2022-12-29T10:43:45;8.30;99.90
52058;DHT22;38063;53.210;6.504;2022-12-29T10:46:24;8.30;99.90
52058;DHT22;38063;53.210;6.504;2022-12-29T10:48:50;8.30;99.90
52058;DHT22;38063;53.210;6.504;2022-12-29T10:51:22;8.40;99.90
52058;DHT22;38063;53.210;6.504;2022-12-29T10:56:38;8.50;99.90
52058;DHT22;38063;53.210;6.504;2022-12-29T10:59:30;8.70;99.90
52058;DHT22;38063;53.210;6.504;2022-12-29T11:07:17;8.60;99.90
52058;DHT22;38063;53.210;6.504;2022-12-29T11:09:44;8.60;99.90
52058;DHT22;38063;53.210;6.504;2022-12-29T11:14:47;8.60;99.90
52058;DHT22;38063;53.210;6.504;2022-12-29T11:17:25;8.70;99.90
52058;DHT22;38063;53.210;6.504;2022-12-29T11:19:51;8.70;99.90
52058;DHT22;38063;53.210;6.504;2022-12-29T11:22:24;8.70;99.90
52058;DHT22;38063;53.210;6.504;2022-12-29T11:24:51;8.70;99.90
52058;DHT22;38063;53.210;6.504;2022-12-29T11:29:46;8.80;99.90
52058;DHT22;38063;53.210;6.504;2022-12-29T11:34:42;8.80;99.90
52058;DHT22;38063;53.210;6.504;2022-12-29T11:39:58;8.90;99.90
52058;DHT22;38063;53.210;6.504;2022-12-29T11:45:19;8.90;99.90
52058;DHT22;38063;53.210;6.504;2022-12-29T11:47:49;8.90;99.90
52058;DHT22;38063;53.210;6.504;2022-12-29T11:50:21;9.20;99.90
52058;DHT22;38063;53.210;6.504;2022-12-29T11:52:49;9.00;99.90
52058;DHT22;38063;53.210;6.504;2022-12-29T11:55:21;9.10;99.90
52058;DHT22;38063;53.210;6.504;2022-12-29T11:57:50;9.00;99.90
52058;DHT22;38063;53.210;6.504;2022-12-29T12:00:19;9.00;99.90
52058;DHT22;38063;53.210;6.504;2022-12-29T12:03:01;9.00;99.90
52058;DHT22;38063;53.210;6.504;2022-12-29T12:05:40;9.00;99.90
52058;DHT22;38063;53.210;6.504;2022-12-29T12:16:19;9.50;99.90
52058;DHT22;38063;53.210;6.504;2022-12-29T12:18:53;9.00;99.90
52058;DHT22;38063;53.210;6.504;2022-12-29T12:24:09;9.00;99.90
52058;DHT22;38063;53.210;6.504;2022-12-29T12:27:04;9.00;99.90
52058;DHT22;38063;53.210;6.504;2022-12-29T12:35:15;9.10;99.90
52058;DHT22;38063;53.210;6.504;2022-12-29T12:58:00;8.90;99.90
52058;DHT22;38063;53.210;6.504;2022-12-29T13:00:39;8.90;99.90
52058;DHT22;38063;53.210;6.504;2022-12-29T13:10:03;8.90;99.90
52058;DHT22;38063;53.210;6.504;2022-12-29T13:12:25;8.90;99.90
52058;DHT22;38063;53.210;6.504;2022-12-29T13:20:32;8.80;99.90
52058;DHT22;38063;53.210;6.504;2022-12-29T13:28:57;8.70;99.90
52058;DHT22;38063;53.210;6.504;2022-12-29T13:36:56;8.70;99.90
52058;DHT22;38063;53.210;6.504;2022-12-29T13:39:33;8.70;99.90
52058;DHT22;38063;53.210;6.504;2022-12-29T13:42:02;8.60;99.90
52058;DHT22;38063;53.210;6.504;2022-12-29T13:44:33;8.60;99.90
52058;DHT22;38063;53.210;6.504;2022-12-29T13:47:06;8.60;99.90
52058;DHT22;38063;53.210;6.504;2022-12-29T13:49:34;8.60;99.90
52058;DHT22;38063;53.210;6.504;2022-12-29T13:52:32;8.70;99.90
52058;DHT22;38063;53.210;6.504;2022-12-29T13:58:08;8.70;99.90
52058;DHT22;38063;53.210;6.504;2022-12-29T14:00:58;8.70;99.90
52058;DHT22;38063;53.210;6.504;2022-12-29T14:03:49;8.80;99.90
52058;DHT22;38063;53.210;6.504;2022-12-29T14:06:30;8.80;99.90
52058;DHT22;38063;53.210;6.504;2022-12-29T14:08:59;8.80;99.90
52058;DHT22;38063;53.210;6.504;2022-12-29T14:11:36;8.80;99.90
52058;DHT22;38063;53.210;6.504;2022-12-29T14:14:20;8.80;99.90
52058;DHT22;38063;53.210;6.504;2022-12-29T14:16:47;8.80;99.90
52058;DHT22;38063;53.210;6.504;2022-12-29T14:21:39;8.60;99.90
52058;DHT22;38063;53.210;6.504;2022-12-29T14:27:00;8.60;99.90
52058;DHT22;38063;53.210;6.504;2022-12-29T14:31:55;8.50;99.90
52058;DHT22;38063;53.210;6.504;2022-12-29T14:36:58;8.40;99.90
52058;DHT22;38063;53.210;6.504;2022-12-29T14:39:37;8.30;99.90
52058;DHT22;38063;53.210;6.504;2022-12-29T14:44:51;8.20;99.90
52058;DHT22;38063;53.210;6.504;2022-12-29T14:49:51;8.20;99.90
52058;DHT22;38063;53.210;6.504;2022-12-29T14:52:21;8.50;99.90
52058;DHT22;38063;53.210;6.504;2022-12-29T14:57:48;8.10;99.90
52058;DHT22;38063;53.210;6.504;2022-12-29T15:00:19;8.10;99.90
52058;DHT22;38063;53.210;6.504;2022-12-29T15:03:12;8.10;99.90
52058;DHT22;38063;53.210;6.504;2022-12-29T15:05:58;8.10;99.90
52058;DHT22;38063;53.210;6.504;2022-12-29T15:08:33;8.10;99.90
52058;DHT22;38063;53.210;6.504;2022-12-29T15:11:10;8.00;99.90
52058;DHT22;38063;53.210;6.504;2022-12-29T15:13:40;8.00;99.90
52058;DHT22;38063;53.210;6.504;2022-12-29T15:16:30;8.00;99.90
52058;DHT22;38063;53.210;6.504;2022-12-29T15:18:57;8.00;99.90
52058;DHT22;38063;53.210;6.504;2022-12-29T15:21:26;7.90;99.90
52058;DHT22;38063;53.210;6.504;2022-12-29T15:23:52;7.90;99.90
52058;DHT22;38063;53.210;6.504;2022-12-29T15:26:18;8.00;99.90
52058;DHT22;38063;53.210;6.504;2022-12-29T15:28:50;7.80;99.90
52058;DHT22;38063;53.210;6.504;2022-12-29T15:31:22;7.80;99.90
52058;DHT22;38063;53.210;6.504;2022-12-29T15:33:51;7.80;99.90
52058;DHT22;38063;53.210;6.504;2022-12-29T15:36:25;7.80;99.90
52058;DHT22;38063;53.210;6.504;2022-12-29T15:38:52;7.80;99.90
52058;DHT22;38063;53.210;6.504;2022-12-29T15:41:24;7.70;99.90
52058;DHT22;38063;53.210;6.504;2022-12-29T15:44:12;7.70;99.90
52058;DHT22;38063;53.210;6.504;2022-12-29T15:46:41;7.70;99.90
52058;DHT22;38063;53.210;6.504;2022-12-29T15:49:08;7.70;99.90
52058;DHT22;38063;53.210;6.504;2022-12-29T15:51:37;7.70;99.90
52058;DHT22;38063;53.210;6.504;2022-12-29T15:54:03;7.70;99.90
52058;DHT22;38063;53.210;6.504;2022-12-29T15:56:30;7.60;99.90
52058;DHT22;38063;53.210;6.504;2022-12-29T15:58:57;7.60;99.90
52058;DHT22;38063;53.210;6.504;2022-12-29T16:01:32;7.60;99.90
52058;DHT22;38063;53.210;6.504;2022-12-29T16:03:59;7.60;99.90
52058;DHT22;38063;53.210;6.504;2022-12-29T16:06:32;7.60;99.90
52058;DHT22;38063;53.210;6.504;2022-12-29T16:09:16;7.60;99.90
52058;DHT22;38063;53.210;6.504;2022-12-29T16:11:51;7.60;99.90
52058;DHT22;38063;53.210;6.504;2022-12-29T16:14:20;7.60;99.90
52058;DHT22;38063;53.210;6.504;2022-12-29T16:16:47;7.70;99.90
52058;DHT22;38063;53.210;6.504;2022-12-29T16:19:27;7.60;99.90
52058;DHT22;38063;53.210;6.504;2022-12-29T16:21:54;7.60;99.90
52058;DHT22;38063;53.210;6.504;2022-12-29T16:24:23;7.60;99.90
52058;DHT22;38063;53.210;6.504;2022-12-29T16:26:57;7.60;99.90
52058;DHT22;38063;53.210;6.504;2022-12-29T16:29:23;8.00;99.90
52058;DHT22;38063;53.210;6.504;2022-12-29T16:31:53;7.50;99.90
52058;DHT22;38063;53.210;6.504;2022-12-29T16:34:33;7.50;99.90
52058;DHT22;38063;53.210;6.504;2022-12-29T16:37:29;7.50;99.90
52058;DHT22;38063;53.210;6.504;2022-12-29T16:39:55;7.40;99.90
52058;DHT22;38063;53.210;6.504;2022-12-29T16:50:34;7.10;99.90
52058;DHT22;38063;53.210;6.504;2022-12-29T16:53:01;7.10;99.90
52058;DHT22;38063;53.210;6.504;2022-12-29T16:55:27;7.00;99.90
52058;DHT22;38063;53.210;6.504;2022-12-29T16:57:54;7.00;99.90
52058;DHT22;38063;53.210;6.504;2022-12-29T17:00:27;6.90;99.90
52058;DHT22;38063;53.210;6.504;2022-12-29T17:02:56;6.90;99.90
52058;DHT22;38063;53.210;6.504;2022-12-29T17:05:22;6.80;99.90
52058;DHT22;38063;53.210;6.504;2022-12-29T17:07:48;6.80;99.90
52058;DHT22;38063;53.210;6.504;2022-12-29T17:10:14;6.70;99.90
52058;DHT22;38063;53.210;6.504;2022-12-29T17:12:42;6.80;99.90
52058;DHT22;38063;53.210;6.504;2022-12-29T17:15:24;6.70;99.90
52058;DHT22;38063;53.210;6.504;2022-12-29T17:17:53;6.70;99.90
52058;DHT22;38063;53.210;6.504;2022-12-29T17:20:25;6.70;99.90
52058;DHT22;38063;53.210;6.504;2022-12-29T17:22:52;6.70;99.90
52058;DHT22;38063;53.210;6.504;2022-12-29T17:25:28;6.70;99.90
52058;DHT22;38063;53.210;6.504;2022-12-29T17:31:08;6.80;99.90
52058;DHT22;38063;53.210;6.504;2022-12-29T17:33:37;6.90;99.90
52058;DHT22;38063;53.210;6.504;2022-12-29T17:36:04;6.90;99.90
52058;DHT22;38063;53.210;6.504;2022-12-29T17:38:33;6.90;99.90
52058;DHT22;38063;53.210;6.504;2022-12-29T17:40:59;7.00;99.90
52058;DHT22;38063;53.210;6.504;2022-12-29T17:43:25;7.00;99.90
52058;DHT22;38063;53.210;6.504;2022-12-29T17:45:56;7.10;99.90
52058;DHT22;38063;53.210;6.504;2022-12-29T17:48:22;7.10;99.90
52058;DHT22;38063;53.210;6.504;2022-12-29T17:50:50;7.10;99.90
52058;DHT22;38063;53.210;6.504;2022-12-29T17:53:21;7.10;99.90
52058;DHT22;38063;53.210;6.504;2022-12-29T17:55:47;7.10;99.90
52058;DHT22;38063;53.210;6.504;2022-12-29T17:58:27;7.10;99.90
52058;DHT22;38063;53.210;6.504;2022-12-29T18:01:02;7.10;99.90
52058;DHT22;38063;53.210;6.504;2022-12-29T18:03:39;7.20;99.90
52058;DHT22;38063;53.210;6.504;2022-12-29T18:06:06;8.10;99.90
52058;DHT22;38063;53.210;6.504;2022-12-29T18:08:37;7.20;99.90
52058;DHT22;38063;53.210;6.504;2022-12-29T18:11:05;7.10;99.90
52058;DHT22;38063;53.210;6.504;2022-12-29T18:13:37;7.10;99.90
52058;DHT22;38063;53.210;6.504;2022-12-29T18:16:03;7.10;99.90
52058;DHT22;38063;53.210;6.504;2022-12-29T18:18:29;7.10;99.90
52058;DHT22;38063;53.210;6.504;2022-12-29T18:20:58;7.10;99.90
52058;DHT22;38063;53.210;6.504;2022-12-29T18:23:26;7.10;99.90
52058;DHT22;38063;53.210;6.504;2022-12-29T18:25:59;7.10;99.90
52058;DHT22;38063;53.210;6.504;2022-12-29T18:28:26;7.20;99.90
52058;DHT22;38063;53.210;6.504;2022-12-29T18:30:52;7.10;99.90
52058;DHT22;38063;53.210;6.504;2022-12-29T18:33:20;7.10;99.90
52058;DHT22;38063;53.210;6.504;2022-12-29T18:35:55;7.10;99.90
52058;DHT22;38063;53.210;6.504;2022-12-29T18:38:21;7.10;99.90
52058;DHT22;38063;53.210;6.504;2022-12-29T18:40:47;7.10;99.90
52058;DHT22;38063;53.210;6.504;2022-12-29T18:43:14;7.10;99.90
52058;DHT22;38063;53.210;6.504;2022-12-29T18:45:40;7.20;99.90
52058;DHT22;38063;53.210;6.504;2022-12-29T18:48:06;8.20;99.90